createdAt,value
2023-05-14T00:04:03.165Z,81.27
2023-05-14T00:19:05.319Z,81.33
2023-05-14T00:34:07.264Z,81.87
2023-05-14T00:49:09.316Z,81.93
2023-05-14T01:04:12.497Z,81.70
2023-05-14T01:19:45.039Z,82.07
2023-05-14T01:34:49.100Z,82.46
2023-05-14T01:49:51.258Z,82.81
2023-05-14T02:04:53.638Z,82.51
2023-05-14T02:19:55.769Z,82.96
2023-05-14T02:34:57.684Z,83.34
2023-05-14T02:49:59.641Z,83.11
2023-05-14T03:05:02.248Z,83.60
2023-05-14T03:20:04.526Z,83.43
2023-05-14T03:35:07.063Z,82.52
2023-05-14T03:50:09.425Z,77.34
2023-05-14T04:05:11.629Z,73.87
2023-05-14T04:20:13.654Z,71.97
2023-05-14T04:35:15.691Z,69.95
2023-05-14T04:50:17.632Z,68.77
2023-05-14T05:05:19.764Z,68.82
2023-05-14T05:20:21.983Z,69.36
2023-05-14T05:35:24.239Z,66.75
2023-05-14T05:50:26.546Z,63.42
2023-05-14T06:05:28.551Z,61.45
2023-05-14T06:20:30.849Z,59.52
2023-05-14T06:35:33.395Z,58.92
2023-05-14T06:50:35.324Z,55.84
2023-05-14T07:05:37.377Z,51.62
2023-05-14T07:20:39.677Z,48.93
2023-05-14T07:35:42.001Z,48.50
2023-05-14T07:50:44.028Z,45.64
2023-05-14T08:05:46.162Z,43.72
2023-05-14T08:20:48.752Z,41.90
2023-05-14T08:35:54.670Z,40.02
2023-05-14T08:50:57.067Z,38.24
2023-05-14T09:06:00.379Z,38.19
2023-05-14T09:21:02.521Z,37.03
2023-05-14T09:36:04.587Z,36.11
2023-05-14T09:51:06.617Z,35.46
2023-05-14T10:06:10.817Z,34.17
2023-05-14T10:21:15.276Z,33.12
2023-05-14T10:36:20.953Z,33.87
2023-05-14T10:51:24.422Z,30.70
2023-05-14T11:06:27.180Z,30.69
2023-05-14T11:21:30.608Z,31.59
2023-05-14T11:36:32.756Z,29.34
2023-05-14T11:51:36.606Z,29.99
2023-05-14T12:06:39.842Z,31.63
2023-05-14T12:21:44.790Z,31.17
2023-05-14T12:36:46.909Z,30.31
2023-05-14T12:51:51.198Z,29.96
2023-05-14T13:06:54.810Z,30.70
2023-05-14T13:21:56.792Z,30.83
2023-05-14T13:36:58.880Z,31.53
2023-05-14T13:52:00.933Z,31.65
2023-05-14T14:07:02.957Z,33.08
2023-05-14T18:03:22.363Z,47.46
2023-05-14T18:18:25.197Z,48.67
2023-05-14T18:33:28.004Z,52.37
2023-05-14T18:48:32.342Z,54.85
2023-05-14T19:03:34.989Z,55.72
2023-05-14T19:18:37.939Z,58.08
2023-05-14T19:33:40.704Z,60.16
2023-05-14T19:48:43.280Z,62.01
2023-05-14T20:03:46.292Z,63.12
2023-05-14T20:18:49.055Z,64.77
2023-05-14T20:33:51.224Z,66.14
2023-05-14T20:48:57.604Z,67.44
2023-05-14T21:03:59.985Z,69.03
2023-05-14T21:19:02.320Z,69.78
2023-05-14T21:34:04.340Z,70.27
2023-05-14T21:49:06.425Z,70.26
2023-05-14T22:04:08.648Z,70.12
2023-05-14T22:19:10.712Z,70.20
2023-05-14T22:34:12.799Z,69.52
2023-05-14T22:49:14.775Z,67.68
2023-05-14T23:04:16.827Z,65.99
2023-05-14T23:19:19.347Z,60.94
2023-05-14T23:34:22.328Z,58.19
2023-05-14T23:49:24.399Z,57.01
